sensor_id;sensor_type;location;lat;lon;timestamp;P1;durP1;ratioP1;P2;durP2;ratioP2
48665;SDS011;34452;50.796;4.994;2022-09-09T00:04:43;3.33;;;0.70;;
48665;SDS011;34452;50.796;4.994;2022-09-09T00:12:41;1.65;;;0.40;;
48665;SDS011;34452;50.796;4.994;2022-09-09T00:15:18;5.07;;;0.80;;
48665;SDS011;34452;50.796;4.994;2022-09-09T00:28:17;5.10;;;0.80;;
48665;SDS011;34452;50.796;4.994;2022-09-09T00:30:45;3.95;;;1.00;;
48665;SDS011;34452;50.796;4.994;2022-09-09T00:33:13;4.25;;;0.95;;
48665;SDS011;34452;50.796;4.994;2022-09-09T00:35:45;2.78;;;0.77;;
48665;SDS011;34452;50.796;4.994;2022-09-09T00:38:15;5.47;;;0.98;;
48665;SDS011;34452;50.796;4.994;2022-09-09T00:40:44;4.13;;;1.33;;
48665;SDS011;34452;50.796;4.994;2022-09-09T00:51:27;5.75;;;0.90;;
48665;SDS011;34452;50.796;4.994;2022-09-09T00:54:20;7.45;;;0.82;;
48665;SDS011;34452;50.796;4.994;2022-09-09T00:57:06;6.30;;;1.00;;
48665;SDS011;34452;50.796;4.994;2022-09-09T00:59:45;5.93;;;0.98;;
48665;SDS011;34452;50.796;4.994;2022-09-09T01:02:29;9.48;;;0.80;;
48665;SDS011;34452;50.796;4.994;2022-09-09T01:07:49;4.20;;;1.10;;
48665;SDS011;34452;50.796;4.994;2022-09-09T01:10:21;7.10;;;0.90;;
48665;SDS011;34452;50.796;4.994;2022-09-09T01:12:59;4.50;;;0.85;;
48665;SDS011;34452;50.796;4.994;2022-09-09T01:15:33;9.00;;;1.15;;
48665;SDS011;34452;50.796;4.994;2022-09-09T01:18:02;8.45;;;0.93;;
48665;SDS011;34452;50.796;4.994;2022-09-09T01:23:21;7.00;;;1.45;;
48665;SDS011;34452;50.796;4.994;2022-09-09T01:26:04;9.20;;;1.15;;
48665;SDS011;34452;50.796;4.994;2022-09-09T01:28:48;6.30;;;1.00;;
48665;SDS011;34452;50.796;4.994;2022-09-09T01:31:19;9.32;;;1.20;;
48665;SDS011;34452;50.796;4.994;2022-09-09T01:33:48;4.38;;;1.00;;
48665;SDS011;34452;50.796;4.994;2022-09-09T01:36:25;7.75;;;1.73;;
48665;SDS011;34452;50.796;4.994;2022-09-09T01:39:00;8.02;;;1.23;;
48665;SDS011;34452;50.796;4.994;2022-09-09T01:41:26;7.22;;;2.00;;
48665;SDS011;34452;50.796;4.994;2022-09-09T01:43:52;10.27;;;1.25;;
48665;SDS011;34452;50.796;4.994;2022-09-09T01:46:21;3.88;;;0.98;;
48665;SDS011;34452;50.796;4.994;2022-09-09T01:48:47;5.70;;;1.13;;
48665;SDS011;34452;50.796;4.994;2022-09-09T01:51:15;6.70;;;1.00;;
48665;SDS011;34452;50.796;4.994;2022-09-09T01:53:41;6.93;;;1.52;;
48665;SDS011;34452;50.796;4.994;2022-09-09T01:56:23;5.75;;;1.55;;
48665;SDS011;34452;50.796;4.994;2022-09-09T01:59:08;8.40;;;1.30;;
48665;SDS011;34452;50.796;4.994;2022-09-09T02:04:27;9.20;;;1.30;;
48665;SDS011;34452;50.796;4.994;2022-09-09T02:06:55;6.35;;;1.10;;
48665;SDS011;34452;50.796;4.994;2022-09-09T02:09:22;9.38;;;1.80;;
48665;SDS011;34452;50.796;4.994;2022-09-09T02:11:49;7.03;;;1.30;;
48665;SDS011;34452;50.796;4.994;2022-09-09T02:14:36;10.90;;;1.30;;
48665;SDS011;34452;50.796;4.994;2022-09-09T02:17:08;4.32;;;1.20;;
48665;SDS011;34452;50.796;4.994;2022-09-09T02:19:37;5.38;;;1.00;;
48665;SDS011;34452;50.796;4.994;2022-09-09T02:22:11;5.07;;;0.93;;
48665;SDS011;34452;50.796;4.994;2022-09-09T02:24:39;10.45;;;1.38;;
48665;SDS011;34452;50.796;4.994;2022-09-09T02:27:06;9.90;;;1.75;;
48665;SDS011;34452;50.796;4.994;2022-09-09T02:29:34;6.65;;;1.38;;
48665;SDS011;34452;50.796;4.994;2022-09-09T02:32:05;9.48;;;1.15;;
48665;SDS011;34452;50.796;4.994;2022-09-09T02:34:35;9.10;;;1.67;;
48665;SDS011;34452;50.796;4.994;2022-09-09T02:37:06;11.80;;;1.33;;
48665;SDS011;34452;50.796;4.994;2022-09-09T02:39:34;5.78;;;1.13;;
48665;SDS011;34452;50.796;4.994;2022-09-09T02:42:00;6.75;;;1.40;;
48665;SDS011;34452;50.796;4.994;2022-09-09T02:44:28;9.02;;;1.35;;
48665;SDS011;34452;50.796;4.994;2022-09-09T02:49:57;7.63;;;1.52;;
48665;SDS011;34452;50.796;4.994;2022-09-09T02:58:19;8.82;;;1.70;;
48665;SDS011;34452;50.796;4.994;2022-09-09T03:00:46;10.15;;;1.55;;
48665;SDS011;34452;50.796;4.994;2022-09-09T03:03:15;8.50;;;1.75;;
48665;SDS011;34452;50.796;4.994;2022-09-09T03:05:42;12.02;;;1.98;;
48665;SDS011;34452;50.796;4.994;2022-09-09T03:08:08;9.57;;;1.13;;
48665;SDS011;34452;50.796;4.994;2022-09-09T03:10:34;15.15;;;1.58;;
48665;SDS011;34452;50.796;4.994;2022-09-09T03:13:02;6.78;;;1.77;;
48665;SDS011;34452;50.796;4.994;2022-09-09T03:15:30;11.95;;;1.92;;
48665;SDS011;34452;50.796;4.994;2022-09-09T03:17:57;12.63;;;1.67;;
48665;SDS011;34452;50.796;4.994;2022-09-09T03:20:24;2.83;;;1.05;;
48665;SDS011;34452;50.796;4.994;2022-09-09T03:22:52;9.13;;;1.08;;
48665;SDS011;34452;50.796;4.994;2022-09-09T03:25:18;7.53;;;1.83;;
48665;SDS011;34452;50.796;4.994;2022-09-09T03:27:44;10.80;;;1.30;;
48665;SDS011;34452;50.796;4.994;2022-09-09T03:30:10;11.67;;;2.07;;
48665;SDS011;34452;50.796;4.994;2022-09-09T03:32:36;7.40;;;1.42;;
48665;SDS011;34452;50.796;4.994;2022-09-09T03:35:02;8.30;;;1.50;;
48665;SDS011;34452;50.796;4.994;2022-09-09T03:37:28;9.40;;;1.30;;
48665;SDS011;34452;50.796;4.994;2022-09-09T03:39:54;10.98;;;1.25;;
48665;SDS011;34452;50.796;4.994;2022-09-09T03:42:20;3.40;;;1.00;;
48665;SDS011;34452;50.796;4.994;2022-09-09T03:47:16;5.60;;;1.13;;
48665;SDS011;34452;50.796;4.994;2022-09-09T03:49:43;6.00;;;1.52;;
48665;SDS011;34452;50.796;4.994;2022-09-09T03:52:09;7.82;;;1.65;;
48665;SDS011;34452;50.796;4.994;2022-09-09T03:54:34;9.50;;;1.70;;
48665;SDS011;34452;50.796;4.994;2022-09-09T03:57:00;6.78;;;1.38;;
48665;SDS011;34452;50.796;4.994;2022-09-09T04:01:52;6.95;;;1.30;;
48665;SDS011;34452;50.796;4.994;2022-09-09T04:04:18;10.05;;;2.17;;
48665;SDS011;34452;50.796;4.994;2022-09-09T04:06:45;9.00;;;1.38;;
48665;SDS011;34452;50.796;4.994;2022-09-09T04:09:11;13.65;;;1.60;;
48665;SDS011;34452;50.796;4.994;2022-09-09T04:11:36;9.70;;;1.80;;
48665;SDS011;34452;50.796;4.994;2022-09-09T04:14:02;8.73;;;1.35;;
48665;SDS011;34452;50.796;4.994;2022-09-09T04:16:31;7.30;;;1.10;;
48665;SDS011;34452;50.796;4.994;2022-09-09T04:18:57;8.20;;;1.30;;
48665;SDS011;34452;50.796;4.994;2022-09-09T04:21:25;8.20;;;1.88;;
48665;SDS011;34452;50.796;4.994;2022-09-09T04:23:50;5.72;;;1.30;;
48665;SDS011;34452;50.796;4.994;2022-09-09T04:26:17;12.95;;;1.80;;
48665;SDS011;34452;50.796;4.994;2022-09-09T04:28:43;7.63;;;1.45;;
48665;SDS011;34452;50.796;4.994;2022-09-09T04:31:10;9.73;;;1.58;;
48665;SDS011;34452;50.796;4.994;2022-09-09T04:33:49;11.63;;;1.65;;
48665;SDS011;34452;50.796;4.994;2022-09-09T04:36:15;12.57;;;1.83;;
48665;SDS011;34452;50.796;4.994;2022-09-09T04:41:08;12.73;;;1.80;;
48665;SDS011;34452;50.796;4.994;2022-09-09T04:43:35;10.55;;;1.67;;
48665;SDS011;34452;50.796;4.994;2022-09-09T04:46:02;11.95;;;1.85;;
48665;SDS011;34452;50.796;4.994;2022-09-09T04:48:28;7.15;;;1.60;;
48665;SDS011;34452;50.796;4.994;2022-09-09T04:50:56;7.35;;;1.42;;
48665;SDS011;34452;50.796;4.994;2022-09-09T04:53:24;9.68;;;1.67;;
48665;SDS011;34452;50.796;4.994;2022-09-09T04:58:16;9.13;;;1.73;;
48665;SDS011;34452;50.796;4.994;2022-09-09T05:00:42;9.73;;;1.60;;
48665;SDS011;34452;50.796;4.994;2022-09-09T05:03:08;9.43;;;2.00;;
48665;SDS011;34452;50.796;4.994;2022-09-09T05:05:34;7.22;;;1.92;;
48665;SDS011;34452;50.796;4.994;2022-09-09T05:10:27;22.98;;;3.60;;
48665;SDS011;34452;50.796;4.994;2022-09-09T05:12:53;9.53;;;2.07;;
48665;SDS011;34452;50.796;4.994;2022-09-09T05:15:19;9.38;;;1.35;;
48665;SDS011;34452;50.796;4.994;2022-09-09T05:17:46;8.90;;;2.05;;
48665;SDS011;34452;50.796;4.994;2022-09-09T05:20:11;21.43;;;1.83;;
48665;SDS011;34452;50.796;4.994;2022-09-09T05:22:37;12.97;;;2.77;;
48665;SDS011;34452;50.796;4.994;2022-09-09T05:25:03;14.17;;;2.23;;
48665;SDS011;34452;50.796;4.994;2022-09-09T05:27:29;11.85;;;2.03;;
48665;SDS011;34452;50.796;4.994;2022-09-09T05:29:56;11.13;;;2.10;;
48665;SDS011;34452;50.796;4.994;2022-09-09T05:32:23;13.00;;;1.85;;
48665;SDS011;34452;50.796;4.994;2022-09-09T05:34:49;5.20;;;1.50;;
48665;SDS011;34452;50.796;4.994;2022-09-09T05:37:15;13.48;;;1.63;;
48665;SDS011;34452;50.796;4.994;2022-09-09T05:39:41;9.57;;;2.10;;
48665;SDS011;34452;50.796;4.994;2022-09-09T05:42:07;9.25;;;2.03;;
48665;SDS011;34452;50.796;4.994;2022-09-09T05:44:33;14.00;;;2.30;;
48665;SDS011;34452;50.796;4.994;2022-09-09T05:46:58;10.05;;;2.08;;
48665;SDS011;34452;50.796;4.994;2022-09-09T05:49:24;9.53;;;1.90;;
48665;SDS011;34452;50.796;4.994;2022-09-09T05:51:50;8.38;;;1.90;;
48665;SDS011;34452;50.796;4.994;2022-09-09T05:54:16;17.10;;;2.28;;
48665;SDS011;34452;50.796;4.994;2022-09-09T05:56:42;7.68;;;1.77;;
48665;SDS011;34452;50.796;4.994;2022-09-09T05:59:08;13.80;;;2.28;;
48665;SDS011;34452;50.796;4.994;2022-09-09T06:01:35;10.27;;;1.63;;
48665;SDS011;34452;50.796;4.994;2022-09-09T06:04:05;12.23;;;1.88;;
48665;SDS011;34452;50.796;4.994;2022-09-09T06:06:32;8.77;;;1.90;;
48665;SDS011;34452;50.796;4.994;2022-09-09T06:09:10;12.27;;;2.20;;
48665;SDS011;34452;50.796;4.994;2022-09-09T06:11:37;17.85;;;3.40;;
48665;SDS011;34452;50.796;4.994;2022-09-09T06:14:04;10.27;;;1.80;;
48665;SDS011;34452;50.796;4.994;2022-09-09T06:18:58;11.27;;;2.40;;
48665;SDS011;34452;50.796;4.994;2022-09-09T06:24:03;13.82;;;2.47;;
48665;SDS011;34452;50.796;4.994;2022-09-09T06:28:56;16.08;;;1.80;;
48665;SDS011;34452;50.796;4.994;2022-09-09T06:31:23;9.45;;;2.10;;
48665;SDS011;34452;50.796;4.994;2022-09-09T06:33:51;11.23;;;1.77;;
48665;SDS011;34452;50.796;4.994;2022-09-09T06:36:18;12.68;;;1.85;;
48665;SDS011;34452;50.796;4.994;2022-09-09T06:38:46;12.32;;;1.88;;
48665;SDS011;34452;50.796;4.994;2022-09-09T06:41:13;13.40;;;1.90;;
48665;SDS011;34452;50.796;4.994;2022-09-09T06:43:40;13.15;;;2.00;;
48665;SDS011;34452;50.796;4.994;2022-09-09T06:46:08;12.25;;;1.60;;
48665;SDS011;34452;50.796;4.994;2022-09-09T06:48:36;12.75;;;1.58;;
48665;SDS011;34452;50.796;4.994;2022-09-09T06:51:06;11.52;;;2.22;;
48665;SDS011;34452;50.796;4.994;2022-09-09T06:53:33;8.80;;;1.77;;
48665;SDS011;34452;50.796;4.994;2022-09-09T06:56:01;8.00;;;2.13;;
48665;SDS011;34452;50.796;4.994;2022-09-09T06:58:42;12.27;;;2.08;;
48665;SDS011;34452;50.796;4.994;2022-09-09T07:01:11;21.33;;;1.80;;
48665;SDS011;34452;50.796;4.994;2022-09-09T07:03:38;12.50;;;1.85;;
48665;SDS011;34452;50.796;4.994;2022-09-09T07:06:05;17.45;;;1.80;;
48665;SDS011;34452;50.796;4.994;2022-09-09T07:08:32;9.13;;;1.75;;
48665;SDS011;34452;50.796;4.994;2022-09-09T07:13:43;9.40;;;2.40;;
48665;SDS011;34452;50.796;4.994;2022-09-09T07:16:10;12.43;;;2.05;;
48665;SDS011;34452;50.796;4.994;2022-09-09T07:18:37;10.15;;;1.45;;
48665;SDS011;34452;50.796;4.994;2022-09-09T07:21:05;16.60;;;2.10;;
48665;SDS011;34452;50.796;4.994;2022-09-09T07:23:31;11.48;;;2.22;;
48665;SDS011;34452;50.796;4.994;2022-09-09T07:25:58;12.52;;;1.85;;
48665;SDS011;34452;50.796;4.994;2022-09-09T07:30:52;8.95;;;1.92;;
48665;SDS011;34452;50.796;4.994;2022-09-09T07:33:19;11.75;;;1.60;;
48665;SDS011;34452;50.796;4.994;2022-09-09T07:35:45;15.52;;;2.08;;
48665;SDS011;34452;50.796;4.994;2022-09-09T07:38:11;14.70;;;1.92;;
48665;SDS011;34452;50.796;4.994;2022-09-09T07:40:36;9.50;;;1.80;;
48665;SDS011;34452;50.796;4.994;2022-09-09T07:43:02;12.20;;;1.95;;
48665;SDS011;34452;50.796;4.994;2022-09-09T07:45:28;20.00;;;3.20;;
48665;SDS011;34452;50.796;4.994;2022-09-09T07:47:57;13.73;;;1.90;;
48665;SDS011;34452;50.796;4.994;2022-09-09T07:50:23;13.13;;;2.35;;
48665;SDS011;34452;50.796;4.994;2022-09-09T07:52:50;10.48;;;2.28;;
48665;SDS011;34452;50.796;4.994;2022-09-09T07:55:16;7.60;;;2.05;;
48665;SDS011;34452;50.796;4.994;2022-09-09T07:57:42;12.68;;;2.30;;
48665;SDS011;34452;50.796;4.994;2022-09-09T08:00:08;11.27;;;1.90;;
48665;SDS011;34452;50.796;4.994;2022-09-09T08:02:35;12.82;;;1.88;;
48665;SDS011;34452;50.796;4.994;2022-09-09T08:05:01;9.70;;;2.67;;
48665;SDS011;34452;50.796;4.994;2022-09-09T08:07:27;6.85;;;1.50;;
48665;SDS011;34452;50.796;4.994;2022-09-09T08:09:53;9.10;;;1.52;;
48665;SDS011;34452;50.796;4.994;2022-09-09T08:12:20;8.77;;;2.15;;
48665;SDS011;34452;50.796;4.994;2022-09-09T08:14:46;13.48;;;2.05;;
48665;SDS011;34452;50.796;4.994;2022-09-09T08:17:13;7.80;;;1.75;;
48665;SDS011;34452;50.796;4.994;2022-09-09T08:19:39;12.43;;;1.67;;
48665;SDS011;34452;50.796;4.994;2022-09-09T08:22:05;8.80;;;1.63;;
48665;SDS011;34452;50.796;4.994;2022-09-09T08:24:32;11.20;;;1.83;;
48665;SDS011;34452;50.796;4.994;2022-09-09T08:26:58;10.65;;;2.83;;
48665;SDS011;34452;50.796;4.994;2022-09-09T08:29:24;11.35;;;1.77;;
48665;SDS011;34452;50.796;4.994;2022-09-09T08:31:51;6.03;;;1.80;;
48665;SDS011;34452;50.796;4.994;2022-09-09T08:34:19;9.85;;;1.50;;
48665;SDS011;34452;50.796;4.994;2022-09-09T08:36:46;17.27;;;2.30;;
48665;SDS011;34452;50.796;4.994;2022-09-09T08:39:14;9.88;;;1.70;;
48665;SDS011;34452;50.796;4.994;2022-09-09T08:44:31;9.65;;;1.75;;
48665;SDS011;34452;50.796;4.994;2022-09-09T08:53:17;9.48;;;1.60;;
48665;SDS011;34452;50.796;4.994;2022-09-09T08:55:48;10.20;;;1.42;;
48665;SDS011;34452;50.796;4.994;2022-09-09T09:06:50;8.05;;;1.30;;
48665;SDS011;34452;50.796;4.994;2022-09-09T09:09:31;7.75;;;1.30;;
48665;SDS011;34452;50.796;4.994;2022-09-09T09:12:10;6.85;;;1.33;;
48665;SDS011;34452;50.796;4.994;2022-09-09T09:14:44;10.57;;;2.13;;
48665;SDS011;34452;50.796;4.994;2022-09-09T09:17:13;7.72;;;1.63;;
48665;SDS011;34452;50.796;4.994;2022-09-09T09:19:42;8.05;;;1.63;;
48665;SDS011;34452;50.796;4.994;2022-09-09T09:30:36;10.88;;;1.45;;
48665;SDS011;34452;50.796;4.994;2022-09-09T09:33:12;7.32;;;1.55;;
48665;SDS011;34452;50.796;4.994;2022-09-09T09:35:44;9.55;;;1.42;;
48665;SDS011;34452;50.796;4.994;2022-09-09T09:40:53;5.95;;;1.15;;
48665;SDS011;34452;50.796;4.994;2022-09-09T09:43:25;7.72;;;1.58;;
48665;SDS011;34452;50.796;4.994;2022-09-09T09:45:53;7.40;;;1.60;;
48665;SDS011;34452;50.796;4.994;2022-09-09T09:48:19;15.82;;;2.05;;
48665;SDS011;34452;50.796;4.994;2022-09-09T09:50:47;10.05;;;1.92;;
48665;SDS011;34452;50.796;4.994;2022-09-09T09:53:18;12.32;;;2.30;;
48665;SDS011;34452;50.796;4.994;2022-09-09T09:55:50;13.82;;;1.73;;
48665;SDS011;34452;50.796;4.994;2022-09-09T09:58:47;11.55;;;2.17;;
48665;SDS011;34452;50.796;4.994;2022-09-09T10:03:59;11.60;;;2.45;;
48665;SDS011;34452;50.796;4.994;2022-09-09T10:06:39;9.52;;;1.80;;
48665;SDS011;34452;50.796;4.994;2022-09-09T10:11:55;9.95;;;1.48;;
48665;SDS011;34452;50.796;4.994;2022-09-09T10:14:45;11.75;;;1.70;;
48665;SDS011;34452;50.796;4.994;2022-09-09T10:19:53;7.82;;;1.70;;
48665;SDS011;34452;50.796;4.994;2022-09-09T10:22:32;15.32;;;2.05;;
48665;SDS011;34452;50.796;4.994;2022-09-09T10:30:17;6.45;;;1.80;;
48665;SDS011;34452;50.796;4.994;2022-09-09T10:32:47;9.77;;;1.90;;
48665;SDS011;34452;50.796;4.994;2022-09-09T10:49:07;12.20;;;2.13;;
48665;SDS011;34452;50.796;4.994;2022-09-09T10:51:46;15.07;;;2.53;;
48665;SDS011;34452;50.796;4.994;2022-09-09T10:54:19;10.77;;;1.75;;
48665;SDS011;34452;50.796;4.994;2022-09-09T10:56:56;9.32;;;2.05;;
48665;SDS011;34452;50.796;4.994;2022-09-09T10:59:27;8.38;;;1.80;;
48665;SDS011;34452;50.796;4.994;2022-09-09T11:02:01;14.63;;;2.20;;
48665;SDS011;34452;50.796;4.994;2022-09-09T11:07:25;16.33;;;1.67;;
48665;SDS011;34452;50.796;4.994;2022-09-09T11:10:00;8.32;;;1.60;;
48665;SDS011;34452;50.796;4.994;2022-09-09T11:12:31;8.05;;;1.60;;
48665;SDS011;34452;50.796;4.994;2022-09-09T11:17:34;10.13;;;2.33;;
48665;SDS011;34452;50.796;4.994;2022-09-09T11:20:11;7.03;;;1.60;;
48665;SDS011;34452;50.796;4.994;2022-09-09T11:22:39;8.82;;;1.88;;
48665;SDS011;34452;50.796;4.994;2022-09-09T11:33:58;8.77;;;1.85;;
48665;SDS011;34452;50.796;4.994;2022-09-09T11:42:35;8.60;;;1.67;;
48665;SDS011;34452;50.796;4.994;2022-09-09T11:48:04;8.60;;;2.13;;
48665;SDS011;34452;50.796;4.994;2022-09-09T11:50:32;9.30;;;1.90;;
48665;SDS011;34452;50.796;4.994;2022-09-09T11:53:04;6.50;;;1.45;;
48665;SDS011;34452;50.796;4.994;2022-09-09T11:55:41;10.43;;;1.58;;
48665;SDS011;34452;50.796;4.994;2022-09-09T12:00:52;8.88;;;1.73;;
48665;SDS011;34452;50.796;4.994;2022-09-09T12:08:50;6.63;;;1.35;;
48665;SDS011;34452;50.796;4.994;2022-09-09T12:14:03;8.68;;;1.60;;
48665;SDS011;34452;50.796;4.994;2022-09-09T12:16:31;6.88;;;1.38;;
48665;SDS011;34452;50.796;4.994;2022-09-09T12:22:00;7.70;;;1.65;;
48665;SDS011;34452;50.796;4.994;2022-09-09T12:24:46;5.32;;;1.67;;
48665;SDS011;34452;50.796;4.994;2022-09-09T12:27:20;8.98;;;2.13;;
48665;SDS011;34452;50.796;4.994;2022-09-09T12:32:35;8.57;;;1.90;;
48665;SDS011;34452;50.796;4.994;2022-09-09T12:35:04;9.63;;;2.17;;
48665;SDS011;34452;50.796;4.994;2022-09-09T12:43:14;4.28;;;1.30;;
48665;SDS011;34452;50.796;4.994;2022-09-09T12:45:43;5.03;;;1.38;;
48665;SDS011;34452;50.796;4.994;2022-09-09T12:48:10;6.55;;;1.50;;
48665;SDS011;34452;50.796;4.994;2022-09-09T12:53:26;9.40;;;1.40;;
48665;SDS011;34452;50.796;4.994;2022-09-09T12:55:58;4.93;;;1.42;;
48665;SDS011;34452;50.796;4.994;2022-09-09T12:58:27;12.20;;;1.58;;
48665;SDS011;34452;50.796;4.994;2022-09-09T13:00:57;5.60;;;1.38;;
48665;SDS011;34452;50.796;4.994;2022-09-09T13:03:24;9.77;;;1.73;;
48665;SDS011;34452;50.796;4.994;2022-09-09T13:08:17;4.40;;;1.00;;
48665;SDS011;34452;50.796;4.994;2022-09-09T13:10:47;6.93;;;1.27;;
48665;SDS011;34452;50.796;4.994;2022-09-09T13:13:31;4.55;;;0.85;;
48665;SDS011;34452;50.796;4.994;2022-09-09T13:16:01;7.93;;;1.25;;
48665;SDS011;34452;50.796;4.994;2022-09-09T13:18:30;4.47;;;1.50;;
48665;SDS011;34452;50.796;4.994;2022-09-09T13:20:58;8.20;;;1.50;;
48665;SDS011;34452;50.796;4.994;2022-09-09T13:23:27;5.10;;;1.35;;
48665;SDS011;34452;50.796;4.994;2022-09-09T13:25:55;4.78;;;1.20;;
48665;SDS011;34452;50.796;4.994;2022-09-09T13:28:24;6.70;;;1.63;;
48665;SDS011;34452;50.796;4.994;2022-09-09T13:33:52;12.23;;;1.40;;
48665;SDS011;34452;50.796;4.994;2022-09-09T13:36:27;5.82;;;1.13;;
48665;SDS011;34452;50.796;4.994;2022-09-09T13:41:22;6.30;;;1.80;;
48665;SDS011;34452;50.796;4.994;2022-09-09T13:43:50;5.55;;;1.20;;
48665;SDS011;34452;50.796;4.994;2022-09-09T13:51:46;5.03;;;0.98;;
48665;SDS011;34452;50.796;4.994;2022-09-09T13:54:16;5.22;;;0.93;;
48665;SDS011;34452;50.796;4.994;2022-09-09T13:56:43;4.43;;;0.95;;
48665;SDS011;34452;50.796;4.994;2022-09-09T13:59:12;4.28;;;1.02;;
48665;SDS011;34452;50.796;4.994;2022-09-09T14:01:40;2.90;;;0.88;;
48665;SDS011;34452;50.796;4.994;2022-09-09T14:04:07;8.75;;;1.02;;
48665;SDS011;34452;50.796;4.994;2022-09-09T14:06:35;3.53;;;1.00;;
48665;SDS011;34452;50.796;4.994;2022-09-09T14:09:13;4.38;;;1.13;;
48665;SDS011;34452;50.796;4.994;2022-09-09T14:11:40;4.18;;;1.13;;
48665;SDS011;34452;50.796;4.994;2022-09-09T14:14:07;3.13;;;0.93;;
48665;SDS011;34452;50.796;4.994;2022-09-09T14:16:34;7.82;;;1.25;;
48665;SDS011;34452;50.796;4.994;2022-09-09T14:19:00;8.70;;;1.63;;
48665;SDS011;34452;50.796;4.994;2022-09-09T14:21:26;5.22;;;1.10;;
48665;SDS011;34452;50.796;4.994;2022-09-09T14:23:52;3.95;;;0.90;;
48665;SDS011;34452;50.796;4.994;2022-09-09T14:26:19;3.95;;;1.15;;
48665;SDS011;34452;50.796;4.994;2022-09-09T14:28:55;3.00;;;0.85;;
48665;SDS011;34452;50.796;4.994;2022-09-09T14:31:21;3.53;;;0.90;;
48665;SDS011;34452;50.796;4.994;2022-09-09T14:37:21;4.40;;;0.90;;
48665;SDS011;34452;50.796;4.994;2022-09-09T14:39:47;4.72;;;0.80;;
48665;SDS011;34452;50.796;4.994;2022-09-09T14:42:15;3.60;;;0.90;;
48665;SDS011;34452;50.796;4.994;2022-09-09T14:44:41;7.88;;;0.85;;
48665;SDS011;34452;50.796;4.994;2022-09-09T14:47:07;5.15;;;1.30;;
48665;SDS011;34452;50.796;4.994;2022-09-09T14:49:35;5.25;;;1.33;;
48665;SDS011;34452;50.796;4.994;2022-09-09T14:52:02;3.65;;;1.00;;
48665;SDS011;34452;50.796;4.994;2022-09-09T14:54:28;6.20;;;1.02;;
48665;SDS011;34452;50.796;4.994;2022-09-09T14:59:22;4.72;;;1.00;;
48665;SDS011;34452;50.796;4.994;2022-09-09T15:01:48;5.57;;;0.85;;
48665;SDS011;34452;50.796;4.994;2022-09-09T15:04:13;3.03;;;0.70;;
48665;SDS011;34452;50.796;4.994;2022-09-09T15:06:39;5.53;;;1.55;;
48665;SDS011;34452;50.796;4.994;2022-09-09T15:09:07;3.20;;;0.65;;
48665;SDS011;34452;50.796;4.994;2022-09-09T15:11:34;4.05;;;1.08;;
48665;SDS011;34452;50.796;4.994;2022-09-09T15:14:03;4.00;;;0.82;;
48665;SDS011;34452;50.796;4.994;2022-09-09T15:16:30;4.78;;;0.93;;
48665;SDS011;34452;50.796;4.994;2022-09-09T15:18:57;6.50;;;1.30;;
48665;SDS011;34452;50.796;4.994;2022-09-09T15:21:26;2.97;;;0.60;;
48665;SDS011;34452;50.796;4.994;2022-09-09T15:23:53;4.93;;;1.08;;
48665;SDS011;34452;50.796;4.994;2022-09-09T15:26:20;9.93;;;1.30;;
48665;SDS011;34452;50.796;4.994;2022-09-09T15:28:46;4.32;;;0.80;;
48665;SDS011;34452;50.796;4.994;2022-09-09T15:31:14;3.42;;;0.88;;
48665;SDS011;34452;50.796;4.994;2022-09-09T15:36:27;4.00;;;0.63;;
48665;SDS011;34452;50.796;4.994;2022-09-09T15:38:55;2.65;;;0.90;;
48665;SDS011;34452;50.796;4.994;2022-09-09T15:41:21;5.28;;;1.35;;
48665;SDS011;34452;50.796;4.994;2022-09-09T15:43:50;5.05;;;1.23;;
48665;SDS011;34452;50.796;4.994;2022-09-09T15:48:42;2.70;;;0.70;;
48665;SDS011;34452;50.796;4.994;2022-09-09T15:51:09;4.80;;;0.93;;
48665;SDS011;34452;50.796;4.994;2022-09-09T15:53:36;4.97;;;1.00;;
48665;SDS011;34452;50.796;4.994;2022-09-09T15:56:04;4.18;;;0.93;;
48665;SDS011;34452;50.796;4.994;2022-09-09T15:58:31;3.15;;;0.70;;
48665;SDS011;34452;50.796;4.994;2022-09-09T16:03:44;4.47;;;1.05;;
48665;SDS011;34452;50.796;4.994;2022-09-09T16:06:11;4.40;;;0.90;;
48665;SDS011;34452;50.796;4.994;2022-09-09T16:08:39;3.35;;;0.90;;
48665;SDS011;34452;50.796;4.994;2022-09-09T16:11:08;5.55;;;1.23;;
48665;SDS011;34452;50.796;4.994;2022-09-09T16:13:37;4.43;;;0.75;;
48665;SDS011;34452;50.796;4.994;2022-09-09T16:16:04;5.97;;;1.08;;
48665;SDS011;34452;50.796;4.994;2022-09-09T16:18:35;4.38;;;1.20;;
48665;SDS011;34452;50.796;4.994;2022-09-09T16:21:02;3.53;;;1.20;;
48665;SDS011;34452;50.796;4.994;2022-09-09T16:23:30;6.75;;;1.00;;
48665;SDS011;34452;50.796;4.994;2022-09-09T16:25:57;3.58;;;1.00;;
48665;SDS011;34452;50.796;4.994;2022-09-09T16:28:23;16.15;;;1.30;;
48665;SDS011;34452;50.796;4.994;2022-09-09T16:30:49;11.48;;;1.65;;
48665;SDS011;34452;50.796;4.994;2022-09-09T16:33:15;4.38;;;1.10;;
48665;SDS011;34452;50.796;4.994;2022-09-09T16:35:41;6.85;;;1.35;;
48665;SDS011;34452;50.796;4.994;2022-09-09T16:38:07;4.97;;;1.40;;
48665;SDS011;34452;50.796;4.994;2022-09-09T16:40:34;6.03;;;1.35;;
48665;SDS011;34452;50.796;4.994;2022-09-09T16:43:01;5.97;;;1.23;;
48665;SDS011;34452;50.796;4.994;2022-09-09T16:47:53;7.68;;;0.88;;
48665;SDS011;34452;50.796;4.994;2022-09-09T16:50:19;5.32;;;1.02;;
48665;SDS011;34452;50.796;4.994;2022-09-09T16:52:44;4.95;;;0.93;;
48665;SDS011;34452;50.796;4.994;2022-09-09T16:55:10;6.20;;;1.15;;
48665;SDS011;34452;50.796;4.994;2022-09-09T16:57:36;5.88;;;1.15;;
48665;SDS011;34452;50.796;4.994;2022-09-09T17:00:03;4.38;;;1.30;;
48665;SDS011;34452;50.796;4.994;2022-09-09T17:02:30;5.20;;;1.00;;
48665;SDS011;34452;50.796;4.994;2022-09-09T17:04:56;4.22;;;1.00;;
48665;SDS011;34452;50.796;4.994;2022-09-09T17:07:22;8.55;;;1.02;;
48665;SDS011;34452;50.796;4.994;2022-09-09T17:09:48;8.00;;;1.42;;
48665;SDS011;34452;50.796;4.994;2022-09-09T17:12:14;3.35;;;1.10;;
48665;SDS011;34452;50.796;4.994;2022-09-09T17:14:41;6.40;;;1.10;;
48665;SDS011;34452;50.796;4.994;2022-09-09T17:17:07;4.28;;;0.90;;
48665;SDS011;34452;50.796;4.994;2022-09-09T17:19:33;4.22;;;0.90;;
48665;SDS011;34452;50.796;4.994;2022-09-09T17:21:58;4.50;;;0.70;;
48665;SDS011;34452;50.796;4.994;2022-09-09T17:26:51;3.45;;;0.60;;
48665;SDS011;34452;50.796;4.994;2022-09-09T17:29:18;5.75;;;1.92;;
48665;SDS011;34452;50.796;4.994;2022-09-09T17:31:44;4.20;;;0.80;;
48665;SDS011;34452;50.796;4.994;2022-09-09T17:34:09;4.60;;;0.90;;
48665;SDS011;34452;50.796;4.994;2022-09-09T17:36:35;4.65;;;0.90;;
48665;SDS011;34452;50.796;4.994;2022-09-09T17:39:03;3.70;;;0.70;;
48665;SDS011;34452;50.796;4.994;2022-09-09T17:41:30;7.38;;;0.98;;
48665;SDS011;34452;50.796;4.994;2022-09-09T17:43:58;4.30;;;1.05;;
48665;SDS011;34452;50.796;4.994;2022-09-09T17:48:52;4.93;;;0.85;;
48665;SDS011;34452;50.796;4.994;2022-09-09T17:51:21;3.33;;;0.70;;
48665;SDS011;34452;50.796;4.994;2022-09-09T17:53:50;6.22;;;1.45;;
48665;SDS011;34452;50.796;4.994;2022-09-09T17:56:19;3.67;;;1.00;;
48665;SDS011;34452;50.796;4.994;2022-09-09T17:58:46;6.68;;;1.52;;
48665;SDS011;34452;50.796;4.994;2022-09-09T18:01:15;5.97;;;1.08;;
48665;SDS011;34452;50.796;4.994;2022-09-09T18:03:43;3.45;;;0.98;;
48665;SDS011;34452;50.796;4.994;2022-09-09T18:06:10;5.57;;;0.88;;
48665;SDS011;34452;50.796;4.994;2022-09-09T18:08:38;4.15;;;0.73;;
48665;SDS011;34452;50.796;4.994;2022-09-09T18:11:05;3.15;;;0.90;;
48665;SDS011;34452;50.796;4.994;2022-09-09T18:13:31;4.40;;;0.90;;
48665;SDS011;34452;50.796;4.994;2022-09-09T18:15:58;8.57;;;1.45;;
48665;SDS011;34452;50.796;4.994;2022-09-09T18:18:25;3.25;;;1.00;;
48665;SDS011;34452;50.796;4.994;2022-09-09T18:23:30;2.63;;;0.73;;